createdAt,value
2023-03-22T00:01:27.009Z,58.58
2023-03-22T00:03:53.634Z,57.17
2023-03-22T00:06:20.370Z,57.01
2023-03-22T00:08:49.561Z,57.14
2023-03-22T00:11:16.159Z,56.42
2023-03-22T00:13:42.716Z,56.16
2023-03-22T00:16:09.863Z,57.48
2023-03-22T00:18:36.858Z,57.93
2023-03-22T00:21:03.654Z,57.94
2023-03-22T00:23:30.309Z,58.08
2023-03-22T00:25:57.179Z,58.69
2023-03-22T00:28:24.539Z,58.33
2023-03-22T00:30:56.426Z,57.85
2023-03-22T00:33:23.339Z,57.19
2023-03-22T00:35:55.096Z,57.08
2023-03-22T00:38:27.394Z,57.61
2023-03-22T00:41:09.290Z,57.87
2023-03-22T00:43:35.826Z,57.77
2023-03-22T00:46:02.702Z,57.88
2023-03-22T00:48:29.330Z,57.81
2023-03-22T00:50:55.880Z,58.34
2023-03-22T00:53:22.375Z,58.56
2023-03-22T00:55:48.916Z,58.47
2023-03-22T00:58:15.393Z,58.77
2023-03-22T01:00:42.164Z,59.36
2023-03-22T01:03:08.893Z,59.85
2023-03-22T01:05:35.586Z,59.74
2023-03-22T01:08:05.847Z,59.84
2023-03-22T01:10:32.190Z,60.16
2023-03-22T01:12:59.665Z,60.89
2023-03-22T01:15:26.554Z,61.13
2023-03-22T01:17:53.153Z,61.93
2023-03-22T01:20:19.962Z,61.66
2023-03-22T01:22:46.484Z,60.83
2023-03-22T01:25:15.389Z,61.60
2023-03-22T01:27:41.860Z,62.15
2023-03-22T01:30:09.282Z,62.40
2023-03-22T01:32:36.931Z,62.13
2023-03-22T01:35:05.176Z,62.33
2023-03-22T01:37:31.776Z,62.33
2023-03-22T01:39:58.435Z,62.15
2023-03-22T01:42:26.237Z,62.94
2023-03-22T01:45:14.358Z,62.70
2023-03-22T01:47:42.806Z,62.62
2023-03-22T01:50:09.671Z,62.57
2023-03-22T01:52:36.834Z,63.29
2023-03-22T01:55:04.717Z,62.12
2023-03-22T01:57:31.249Z,61.60
2023-03-22T01:59:57.722Z,62.17
2023-03-22T02:02:24.283Z,61.46
2023-03-22T02:04:51.054Z,60.97
2023-03-22T02:07:18.870Z,61.71
2023-03-22T02:09:45.396Z,62.33
2023-03-22T02:12:40.999Z,63.32
2023-03-22T02:15:23.106Z,62.95
2023-03-22T02:18:19.024Z,63.09
2023-03-22T02:20:56.156Z,62.55
2023-03-22T02:23:36.890Z,63.15
2023-03-22T02:26:20.390Z,63.00
2023-03-22T02:28:53.045Z,62.41
2023-03-22T02:31:38.391Z,62.11
2023-03-22T02:34:23.743Z,61.60
2023-03-22T02:37:23.245Z,61.82
2023-03-22T02:39:55.826Z,60.97
2023-03-22T02:42:27.557Z,61.00
2023-03-22T02:45:20.560Z,60.35
2023-03-22T02:48:25.567Z,60.93
2023-03-22T02:50:58.951Z,61.25
2023-03-22T02:53:33.572Z,62.21
2023-03-22T02:56:13.622Z,62.42
2023-03-22T02:58:54.692Z,62.21
2023-03-22T03:01:25.032Z,62.10
2023-03-22T03:03:54.279Z,62.46
2023-03-22T03:06:22.998Z,62.42
2023-03-22T03:08:50.222Z,63.08
2023-03-22T03:11:17.135Z,63.63
2023-03-22T03:13:46.720Z,64.17
2023-03-22T03:16:13.626Z,64.50
2023-03-22T03:19:08.981Z,64.67
2023-03-22T03:21:47.523Z,65.82
2023-03-22T03:24:26.880Z,66.60
2023-03-22T03:26:56.299Z,66.36
2023-03-22T03:29:29.290Z,65.84
2023-03-22T03:32:18.951Z,66.35
2023-03-22T03:35:13.095Z,65.84
2023-03-22T03:37:49.608Z,64.97
2023-03-22T03:40:33.927Z,65.26
2023-03-22T03:43:03.556Z,64.82
2023-03-22T03:45:30.448Z,65.10
2023-03-22T03:48:04.785Z,64.53
2023-03-22T03:50:31.657Z,64.86
2023-03-22T03:52:58.520Z,64.57
2023-03-22T03:55:26.201Z,65.34
2023-03-22T03:57:52.732Z,64.82
2023-03-22T04:00:19.839Z,64.90
2023-03-22T04:02:46.372Z,64.54
2023-03-22T04:05:13.603Z,64.90
2023-03-22T04:07:40.259Z,65.01
2023-03-22T04:10:07.543Z,64.79
2023-03-22T04:12:34.116Z,64.41
2023-03-22T04:15:00.693Z,64.88
2023-03-22T04:17:27.289Z,65.28
2023-03-22T04:19:53.764Z,65.79
2023-03-22T04:22:20.279Z,66.37
2023-03-22T04:24:46.777Z,66.69
2023-03-22T04:27:13.282Z,67.25
2023-03-22T04:29:39.788Z,67.00
2023-03-22T04:32:06.312Z,66.98
2023-03-22T04:34:32.804Z,67.09
2023-03-22T04:36:59.360Z,66.91
2023-03-22T04:39:25.875Z,66.89
2023-03-22T04:41:54.970Z,66.20
2023-03-22T04:44:21.488Z,66.22
2023-03-22T04:46:47.977Z,66.52
2023-03-22T04:49:14.506Z,67.26
2023-03-22T04:51:41.001Z,67.10
2023-03-22T04:54:07.557Z,66.89
2023-03-22T04:56:34.070Z,67.75
2023-03-22T04:59:00.683Z,68.65
2023-03-22T05:01:27.279Z,68.85
2023-03-22T05:03:53.802Z,69.08
2023-03-22T05:06:20.305Z,69.79
2023-03-22T05:08:46.866Z,68.76
2023-03-22T05:11:15.998Z,69.22
2023-03-22T05:13:43.059Z,68.75
2023-03-22T05:16:10.505Z,69.07
2023-03-22T05:18:37.245Z,68.54
2023-03-22T05:21:03.920Z,68.13
2023-03-22T05:23:30.421Z,69.37
2023-03-22T05:25:57.420Z,69.63
2023-03-22T05:28:24.630Z,69.91
2023-03-22T05:30:51.122Z,71.04
2023-03-22T05:33:17.899Z,70.67
2023-03-22T05:35:44.553Z,70.84
2023-03-22T05:38:11.102Z,71.94
2023-03-22T05:40:38.206Z,71.35
2023-03-22T05:43:04.904Z,71.84
2023-03-22T05:45:31.423Z,71.87
2023-03-22T05:47:58.380Z,71.98
2023-03-22T05:50:24.923Z,71.84
2023-03-22T05:52:51.583Z,71.28
2023-03-22T05:55:18.501Z,71.03
2023-03-22T05:57:46.312Z,71.04
2023-03-22T06:00:15.135Z,71.00
2023-03-22T06:02:46.911Z,71.43
2023-03-22T06:05:15.486Z,70.26
2023-03-22T06:07:42.412Z,70.21
2023-03-22T06:10:12.343Z,70.42
2023-03-22T06:12:39.103Z,70.09
2023-03-22T06:15:06.171Z,68.36
2023-03-22T06:17:32.749Z,67.78
2023-03-22T06:19:59.356Z,67.78
2023-03-22T06:22:26.030Z,67.44
2023-03-22T06:24:52.573Z,67.30
2023-03-22T06:27:19.068Z,67.36
2023-03-22T06:29:45.559Z,67.13
2023-03-22T06:32:12.946Z,67.31
2023-03-22T06:34:39.537Z,66.85
2023-03-22T06:37:06.107Z,67.79
2023-03-22T06:39:33.939Z,67.49
2023-03-22T06:42:00.465Z,67.26
2023-03-22T06:44:28.471Z,66.04
2023-03-22T06:46:57.489Z,65.57
2023-03-22T06:49:24.005Z,64.72
2023-03-22T06:51:50.644Z,65.36
2023-03-22T06:54:17.154Z,64.92
2023-03-22T06:56:43.697Z,64.50
2023-03-22T06:59:10.245Z,64.33
2023-03-22T07:01:36.832Z,64.03
2023-03-22T07:04:03.738Z,64.79
2023-03-22T07:06:30.262Z,64.34
2023-03-22T07:08:56.768Z,64.02
2023-03-22T07:11:23.378Z,64.35
2023-03-22T07:13:49.909Z,64.11
2023-03-22T07:16:19.368Z,64.07
2023-03-22T07:18:46.633Z,63.91
2023-03-22T07:21:13.201Z,62.71
2023-03-22T07:23:39.760Z,61.71
2023-03-22T07:26:06.555Z,61.29
2023-03-22T07:28:33.439Z,60.58
2023-03-22T07:31:05.755Z,59.55
2023-03-22T07:33:32.382Z,59.42
2023-03-22T07:35:59.383Z,58.50
2023-03-22T07:38:25.960Z,56.07
2023-03-22T07:40:53.440Z,53.82
2023-03-22T07:43:20.738Z,51.98
2023-03-22T07:45:49.647Z,49.76
2023-03-22T07:48:17.185Z,49.11
2023-03-22T07:50:43.798Z,48.15
2023-03-22T07:53:10.728Z,48.62
2023-03-22T07:55:42.876Z,49.00
2023-03-22T07:58:09.428Z,48.92
2023-03-22T08:00:36.230Z,47.77
2023-03-22T08:03:02.859Z,46.83
2023-03-22T08:05:29.393Z,46.27
2023-03-22T08:07:55.965Z,46.69
2023-03-22T08:10:22.488Z,47.07
2023-03-22T08:12:49.153Z,47.88
2023-03-22T08:15:15.779Z,47.34
2023-03-22T08:17:42.580Z,47.74
2023-03-22T08:20:09.642Z,48.28
2023-03-22T08:22:36.613Z,48.12
2023-03-22T08:25:04.343Z,48.70
2023-03-22T08:27:30.994Z,48.67
2023-03-22T08:29:57.743Z,49.43
2023-03-22T08:32:24.588Z,49.87
2023-03-22T08:34:51.162Z,48.43
2023-03-22T08:37:18.828Z,49.04
2023-03-22T08:39:45.371Z,50.04
2023-03-22T08:42:13.458Z,49.44
2023-03-22T08:44:40.154Z,48.80
2023-03-22T08:47:09.644Z,48.87
2023-03-22T08:49:36.268Z,49.75
2023-03-22T08:52:09.013Z,49.05
2023-03-22T08:54:35.554Z,48.02
2023-03-22T08:57:02.050Z,47.62
2023-03-22T08:59:28.711Z,48.06
2023-03-22T09:01:55.385Z,47.54
2023-03-22T09:04:22.008Z,48.00
2023-03-22T09:06:48.569Z,48.55
2023-03-22T09:09:15.161Z,48.67
2023-03-22T09:11:41.675Z,48.84
2023-03-22T09:14:09.467Z,49.58
2023-03-22T09:16:36.028Z,49.71
2023-03-22T09:19:02.581Z,49.80
2023-03-22T09:21:29.136Z,51.12
2023-03-22T09:23:56.357Z,48.40
2023-03-22T09:26:23.009Z,50.07
2023-03-22T09:28:49.667Z,49.75
2023-03-22T09:31:18.518Z,49.91
2023-03-22T09:33:46.308Z,50.58
2023-03-22T09:36:12.829Z,48.47
2023-03-22T09:38:40.001Z,49.96
2023-03-22T09:41:08.759Z,49.34
2023-03-22T09:43:40.658Z,50.04
2023-03-22T09:46:13.549Z,49.17
2023-03-22T09:48:42.411Z,49.25
2023-03-22T09:51:20.771Z,48.17
2023-03-22T09:53:48.341Z,48.85
2023-03-22T09:56:24.306Z,49.14
2023-03-22T09:58:55.381Z,49.36
2023-03-22T10:01:44.726Z,50.38
2023-03-22T10:04:34.183Z,50.57
2023-03-22T10:07:25.716Z,51.32
2023-03-22T10:10:07.541Z,49.61
2023-03-22T10:13:01.015Z,49.11
2023-03-22T10:15:35.662Z,50.83
2023-03-22T10:18:06.388Z,49.79
2023-03-22T10:20:59.368Z,49.56
2023-03-22T10:23:30.962Z,48.74
2023-03-22T10:25:59.002Z,48.93
2023-03-22T10:28:31.279Z,49.63
2023-03-22T10:30:58.797Z,48.57
2023-03-22T10:33:43.014Z,47.98
2023-03-22T10:36:13.871Z,48.59
2023-03-22T10:38:53.227Z,45.49
2023-03-22T10:41:21.022Z,45.68
2023-03-22T10:43:53.601Z,42.35
2023-03-22T10:46:22.913Z,44.27
2023-03-22T10:48:51.526Z,43.02
2023-03-22T10:51:26.334Z,42.04
2023-03-22T10:53:55.154Z,42.01
2023-03-22T10:56:22.038Z,42.84
2023-03-22T10:58:49.585Z,42.58
2023-03-22T11:01:30.622Z,43.39
2023-03-22T11:04:16.555Z,42.73
2023-03-22T11:06:52.718Z,42.78
2023-03-22T11:09:22.122Z,42.06
2023-03-22T11:11:53.639Z,42.81
2023-03-22T11:14:25.281Z,42.13
2023-03-22T11:17:22.843Z,42.63
2023-03-22T11:19:58.890Z,42.31
2023-03-22T11:22:33.861Z,40.79
2023-03-22T11:25:00.827Z,40.83
2023-03-22T11:27:30.014Z,40.95
2023-03-22T11:30:21.147Z,41.28
2023-03-22T11:32:47.917Z,40.83
2023-03-22T11:35:25.344Z,40.75
2023-03-22T11:37:53.547Z,41.27
2023-03-22T11:40:24.797Z,41.08
2023-03-22T11:42:56.531Z,41.45
2023-03-22T11:45:33.238Z,40.45
2023-03-22T11:48:06.405Z,41.25
2023-03-22T11:50:36.811Z,42.12
2023-03-22T11:53:04.890Z,41.53
2023-03-22T11:55:31.960Z,41.14
2023-03-22T11:57:58.532Z,43.08
2023-03-22T12:00:27.211Z,43.03
2023-03-22T12:03:07.136Z,42.96
2023-03-22T12:05:33.981Z,42.15
2023-03-22T12:08:04.192Z,42.18
2023-03-22T12:10:39.010Z,42.51
2023-03-22T12:13:14.185Z,40.71
2023-03-22T12:15:42.777Z,40.63
2023-03-22T12:18:17.772Z,40.46
2023-03-22T12:20:49.454Z,40.26
2023-03-22T12:23:19.650Z,41.27
2023-03-22T12:26:12.192Z,40.56
2023-03-22T12:28:43.560Z,40.87
2023-03-22T12:31:14.815Z,39.74
2023-03-22T12:33:47.698Z,40.08
2023-03-22T12:36:37.547Z,38.69
2023-03-22T12:39:06.628Z,39.84
2023-03-22T12:41:39.714Z,38.56
2023-03-22T12:44:27.712Z,39.41
2023-03-22T12:47:12.663Z,38.62
2023-03-22T12:50:11.511Z,39.60
2023-03-22T12:52:45.877Z,40.63
2023-03-22T12:55:24.687Z,40.81
2023-03-22T12:57:51.666Z,41.46
2023-03-22T13:00:19.128Z,39.95
2023-03-22T13:03:02.972Z,41.75
2023-03-22T13:05:33.514Z,42.20
2023-03-22T13:08:00.539Z,42.49
2023-03-22T13:10:29.765Z,42.26
2023-03-22T13:13:21.055Z,41.24
2023-03-22T13:16:09.140Z,40.97
2023-03-22T13:18:35.794Z,42.36
2023-03-22T13:21:12.194Z,40.72
2023-03-22T13:24:01.845Z,41.03
2023-03-22T13:26:57.834Z,41.41
2023-03-22T13:29:35.625Z,41.90
2023-03-22T13:32:05.343Z,41.17
2023-03-22T13:34:46.646Z,40.06
2023-03-22T13:37:32.210Z,40.15
2023-03-22T13:39:58.903Z,40.56
2023-03-22T13:42:32.482Z,38.38
2023-03-22T13:45:00.200Z,39.94
2023-03-22T13:47:35.790Z,39.93
2023-03-22T13:50:26.740Z,39.88
2023-03-22T13:53:19.478Z,40.11
2023-03-22T13:55:48.880Z,40.80
2023-03-22T13:58:30.419Z,39.31
2023-03-22T14:00:57.523Z,38.85
2023-03-22T14:03:29.164Z,39.60
2023-03-22T14:06:15.659Z,38.34
2023-03-22T14:08:43.825Z,37.84
2023-03-22T14:11:26.797Z,40.32
2023-03-22T14:14:03.844Z,39.80
2023-03-22T14:16:49.257Z,39.18
2023-03-22T14:19:22.316Z,38.81
